createdAt,value
2022-09-17T00:02:21.220Z,2.30
2022-09-17T00:05:50.678Z,2.00
2022-09-17T00:09:18.404Z,2.70
2022-09-17T00:12:47.559Z,2.30
2022-09-17T00:16:22.518Z,2.80
2022-09-17T00:19:50.163Z,3.70
2022-09-17T00:23:17.809Z,3.50
2022-09-17T00:26:45.937Z,2.60
2022-09-17T00:30:17.320Z,2.60
2022-09-17T00:33:44.089Z,2.30
2022-09-17T00:37:12.408Z,2.80
2022-09-17T00:40:42.674Z,2.50
2022-09-17T00:44:39.687Z,2.30
2022-09-17T00:48:09.604Z,2.50
2022-09-17T00:51:41.782Z,2.20
2022-09-17T00:55:18.193Z,2.60
2022-09-17T00:58:45.204Z,2.30
2022-09-17T01:02:12.817Z,2.80
2022-09-17T01:05:47.497Z,2.80
2022-09-17T01:09:33.109Z,2.00
2022-09-17T01:13:18.375Z,2.20
2022-09-17T01:17:02.319Z,2.40
2022-09-17T01:21:04.460Z,2.30
2022-09-17T01:24:50.273Z,2.20
2022-09-17T01:28:40.822Z,2.10
2022-09-17T01:32:14.551Z,2.40
2022-09-17T01:35:52.708Z,2.10
2022-09-17T01:39:30.926Z,2.40
2022-09-17T01:43:05.938Z,2.50
2022-09-17T01:46:44.238Z,2.60
2022-09-17T01:50:47.171Z,2.30
2022-09-17T01:54:42.676Z,2.50
2022-09-17T01:58:39.984Z,2.30
2022-09-17T02:02:49.624Z,2.10
2022-09-17T02:07:14.450Z,2.10
2022-09-17T02:11:06.245Z,1.90
2022-09-17T02:15:03.518Z,1.90
2022-09-17T02:18:36.038Z,3.00
2022-09-17T02:22:11.041Z,2.50
2022-09-17T02:25:44.982Z,2.00
2022-09-17T02:29:21.162Z,2.50
2022-09-17T02:32:48.173Z,2.00
2022-09-17T02:36:15.756Z,2.10
2022-09-17T02:39:43.994Z,1.90
2022-09-17T02:43:16.301Z,2.30
2022-09-17T02:46:59.009Z,2.10
2022-09-17T02:50:37.507Z,2.10
2022-09-17T02:54:14.235Z,1.50
2022-09-17T02:57:49.443Z,2.00
2022-09-17T03:01:32.698Z,1.70
2022-09-17T03:05:00.618Z,2.00
2022-09-17T03:08:44.438Z,1.80
2022-09-17T03:12:11.890Z,1.80
2022-09-17T03:15:38.857Z,1.80
2022-09-17T03:19:06.305Z,1.80
2022-09-17T03:22:33.334Z,1.80
2022-09-17T03:26:00.162Z,1.40
2022-09-17T03:29:27.040Z,1.70
2022-09-17T03:32:53.915Z,1.90
2022-09-17T03:36:24.919Z,1.70
2022-09-17T03:39:51.817Z,1.80
2022-09-17T03:43:20.571Z,1.90
2022-09-17T03:46:47.992Z,1.70
2022-09-17T03:50:15.131Z,1.60
2022-09-17T03:53:42.594Z,1.70
2022-09-17T03:57:09.891Z,1.50
2022-09-17T04:00:38.296Z,1.70
2022-09-17T04:04:05.810Z,1.70
2022-09-17T04:07:32.829Z,1.50
2022-09-17T04:10:59.365Z,1.50
2022-09-17T04:14:27.343Z,1.40
2022-09-17T04:17:57.917Z,1.40
2022-09-17T04:21:24.943Z,1.30
2022-09-17T04:24:51.675Z,1.80
2022-09-17T04:28:19.052Z,1.20
2022-09-17T04:31:46.326Z,1.90
2022-09-17T04:35:13.494Z,1.80
2022-09-17T04:38:40.660Z,1.30
2022-09-17T04:42:07.675Z,1.70
2022-09-17T04:45:34.869Z,1.50
2022-09-17T04:49:01.760Z,1.20
2022-09-17T04:52:30.993Z,1.40
2022-09-17T04:55:57.820Z,1.30
2022-09-17T04:59:24.898Z,1.60
2022-09-17T05:02:53.775Z,1.80
2022-09-17T05:06:20.571Z,1.70
2022-09-17T05:09:47.815Z,1.70
2022-09-17T05:13:14.280Z,2.00
2022-09-17T05:16:41.096Z,1.50
2022-09-17T05:20:09.865Z,2.10
2022-09-17T05:23:36.953Z,1.40
2022-09-17T05:27:03.710Z,1.30
2022-09-17T05:30:31.637Z,1.40
2022-09-17T05:34:00.936Z,2.20
2022-09-17T05:37:27.724Z,1.60
2022-09-17T05:40:54.358Z,1.70
2022-09-17T05:44:21.445Z,1.10
2022-09-17T05:47:48.542Z,1.50
2022-09-17T05:51:15.913Z,1.80
2022-09-17T05:54:45.729Z,2.00
2022-09-17T05:58:19.621Z,1.80
2022-09-17T06:01:51.199Z,1.20
2022-09-17T06:05:18.659Z,1.30
2022-09-17T06:08:45.933Z,1.20
2022-09-17T06:12:13.129Z,1.50
2022-09-17T06:15:40.087Z,1.20
2022-09-17T06:19:06.916Z,1.50
2022-09-17T06:22:33.737Z,1.10
2022-09-17T06:26:01.477Z,1.30
2022-09-17T06:29:28.086Z,1.20
2022-09-17T06:32:55.318Z,2.00
2022-09-17T06:36:22.694Z,1.40
2022-09-17T06:39:49.197Z,1.90
2022-09-17T06:43:17.707Z,1.60
2022-09-17T06:46:44.492Z,1.80
2022-09-17T06:50:13.682Z,1.90
2022-09-17T06:53:43.275Z,1.90
2022-09-17T06:57:10.757Z,2.20
2022-09-17T07:00:37.844Z,2.00
2022-09-17T07:04:10.206Z,1.90
2022-09-17T07:07:39.962Z,1.70
2022-09-17T07:11:07.103Z,2.50
2022-09-17T07:14:34.162Z,1.80
2022-09-17T07:18:02.854Z,1.70
2022-09-17T07:21:29.928Z,2.00
2022-09-17T07:24:56.863Z,2.40
2022-09-17T07:28:24.263Z,1.70
2022-09-17T07:31:51.507Z,1.80
2022-09-17T07:35:19.040Z,2.00
2022-09-17T07:38:46.198Z,2.30
2022-09-17T07:42:13.416Z,1.90
2022-09-17T07:45:40.217Z,2.60
2022-09-17T07:49:07.621Z,2.30
2022-09-17T07:52:34.172Z,2.00
2022-09-17T07:56:02.805Z,2.60
2022-09-17T07:59:30.373Z,3.50
2022-09-17T08:02:58.327Z,3.50
2022-09-17T08:06:28.478Z,3.90
2022-09-17T08:09:56.505Z,2.70
2022-09-17T08:13:23.311Z,2.90
2022-09-17T08:16:50.658Z,2.10
2022-09-17T08:20:19.367Z,2.30
2022-09-17T08:23:46.926Z,2.70
2022-09-17T08:27:14.086Z,2.50
2022-09-17T08:30:40.934Z,2.40
2022-09-17T08:34:12.749Z,3.00
2022-09-17T08:37:39.633Z,2.40
2022-09-17T08:41:22.521Z,2.20
2022-09-17T08:44:52.078Z,2.20
2022-09-17T08:48:20.483Z,2.10
2022-09-17T08:52:00.046Z,2.00
2022-09-17T08:55:35.384Z,2.10
2022-09-17T08:59:13.329Z,2.30
2022-09-17T09:03:00.950Z,2.60
2022-09-17T09:06:37.905Z,1.90
2022-09-17T09:10:14.283Z,2.50
2022-09-17T09:13:47.895Z,2.20
2022-09-17T09:17:17.349Z,2.40
2022-09-17T09:20:49.747Z,2.90
2022-09-17T09:24:26.358Z,3.20
2022-09-17T09:28:19.271Z,2.50
2022-09-17T09:31:58.221Z,2.40
2022-09-17T09:35:28.779Z,1.90
2022-09-17T09:39:02.025Z,1.50
2022-09-17T09:42:34.073Z,1.80
2022-09-17T09:46:21.574Z,1.70
2022-09-17T09:50:10.425Z,2.00
2022-09-17T09:53:47.701Z,1.70
2022-09-17T09:57:18.053Z,1.50
2022-09-17T10:00:46.082Z,1.80
2022-09-17T10:04:20.554Z,1.90
2022-09-17T10:07:49.096Z,1.70
2022-09-17T10:11:27.008Z,1.70
2022-09-17T10:14:54.825Z,1.90
2022-09-17T10:18:26.149Z,2.10
2022-09-17T10:21:53.859Z,1.80
2022-09-17T10:25:30.153Z,2.00
2022-09-17T10:28:59.801Z,2.00
2022-09-17T10:32:27.259Z,2.00
2022-09-17T10:36:04.702Z,1.80
2022-09-17T10:39:44.556Z,1.80
2022-09-17T10:43:25.263Z,1.60
2022-09-17T10:46:52.543Z,2.10
2022-09-17T10:50:23.070Z,2.10
2022-09-17T10:54:24.990Z,1.60
2022-09-17T10:58:15.101Z,1.80
2022-09-17T11:02:07.362Z,1.70
2022-09-17T11:05:53.859Z,1.90
2022-09-17T11:09:31.608Z,1.80
2022-09-17T11:13:18.700Z,1.60
2022-09-17T11:16:57.721Z,1.50
2022-09-17T11:20:44.584Z,1.90
2022-09-17T11:24:38.730Z,1.50
2022-09-17T11:28:11.542Z,1.50
2022-09-17T11:31:48.715Z,1.90
2022-09-17T11:35:20.987Z,1.60
2022-09-17T11:38:51.726Z,1.80
2022-09-17T11:42:23.627Z,2.50
2022-09-17T11:45:58.225Z,2.20
2022-09-17T11:49:35.615Z,1.20
2022-09-17T11:53:12.311Z,1.30
2022-09-17T11:56:46.056Z,1.00
2022-09-17T12:00:20.724Z,1.30
2022-09-17T12:03:54.470Z,0.80
2022-09-17T12:07:36.607Z,1.30
2022-09-17T12:11:12.764Z,1.50
2022-09-17T12:15:05.493Z,1.00
2022-09-17T12:18:42.214Z,1.20
2022-09-17T12:22:15.439Z,1.10
2022-09-17T12:25:48.273Z,0.70
2022-09-17T12:33:54.759Z,1.20
2022-09-17T12:37:33.424Z,0.70
2022-09-17T12:41:08.568Z,0.90
2022-09-17T12:45:09.181Z,1.10
2022-09-17T12:48:57.712Z,0.80
2022-09-17T12:52:39.489Z,1.00
2022-09-17T12:56:14.965Z,0.70
2022-09-17T12:59:49.899Z,0.80
2022-09-17T13:03:26.680Z,0.60
2022-09-17T13:07:31.149Z,0.80
2022-09-17T13:11:27.805Z,1.30
2022-09-17T13:19:17.290Z,1.00
2022-09-17T13:22:50.978Z,0.80
2022-09-17T13:26:21.928Z,0.80
2022-09-17T13:30:06.785Z,1.00
2022-09-17T13:33:54.571Z,0.90
2022-09-17T13:37:24.723Z,1.20
2022-09-17T13:40:53.297Z,1.20
2022-09-17T13:44:25.402Z,1.10
2022-09-17T13:47:56.379Z,1.10
2022-09-17T13:51:53.532Z,1.30
2022-09-17T13:55:40.178Z,1.80
2022-09-17T13:59:12.627Z,1.70
2022-09-17T14:02:41.088Z,1.40
2022-09-17T14:06:38.394Z,1.00
2022-09-17T14:10:42.527Z,0.90
2022-09-17T14:14:50.299Z,0.90
2022-09-17T14:18:44.013Z,1.40
2022-09-17T14:25:51.107Z,1.00
2022-09-17T14:29:37.025Z,0.90
2022-09-17T14:33:15.125Z,0.70
2022-09-17T14:36:44.525Z,0.60
2022-09-17T14:40:18.464Z,0.80
2022-09-17T14:43:51.592Z,0.70
2022-09-17T14:47:22.193Z,0.90
2022-09-17T14:50:50.354Z,0.80
2022-09-17T14:54:33.653Z,0.80
2022-09-17T14:58:06.267Z,0.50
2022-09-17T15:01:35.365Z,0.70
2022-09-17T15:05:04.582Z,0.50
2022-09-17T15:08:33.247Z,0.60
2022-09-17T15:12:06.361Z,0.60
2022-09-17T15:15:34.745Z,0.60
2022-09-17T15:19:03.847Z,0.90
2022-09-17T15:22:33.837Z,0.60
2022-09-17T15:26:07.507Z,0.70
2022-09-17T15:33:05.388Z,2.20
2022-09-17T15:36:35.055Z,0.90
2022-09-17T15:40:13.509Z,2.20
2022-09-17T15:43:44.317Z,1.20
2022-09-17T15:47:50.995Z,0.70
2022-09-17T15:51:27.824Z,1.30
2022-09-17T15:54:56.200Z,2.90
2022-09-17T15:58:28.799Z,1.10
2022-09-17T16:01:58.353Z,1.10
2022-09-17T16:05:55.685Z,1.10
2022-09-17T16:09:50.306Z,1.10
2022-09-17T16:13:17.080Z,1.40
2022-09-17T16:16:44.685Z,1.30
2022-09-17T16:20:17.918Z,1.30
2022-09-17T16:23:46.504Z,1.40
2022-09-17T16:27:21.143Z,1.70
2022-09-17T16:30:50.495Z,1.60
2022-09-17T16:34:20.028Z,1.60
2022-09-17T16:37:49.354Z,2.80
2022-09-17T16:41:16.304Z,2.10
2022-09-17T16:44:44.055Z,3.80
2022-09-17T16:48:11.236Z,4.50
2022-09-17T16:51:38.715Z,3.70
2022-09-17T16:55:07.063Z,3.50
2022-09-17T16:58:34.778Z,4.20
2022-09-17T17:02:02.919Z,4.30
2022-09-17T17:05:30.698Z,4.70
2022-09-17T17:09:01.033Z,3.90
2022-09-17T17:12:28.320Z,3.10
2022-09-17T17:15:57.854Z,4.20
2022-09-17T17:19:25.571Z,4.40
2022-09-17T17:22:55.303Z,4.80
2022-09-17T17:26:22.418Z,3.70
2022-09-17T17:29:50.345Z,2.70
2022-09-17T17:33:18.159Z,2.40
2022-09-17T17:36:46.410Z,4.10
2022-09-17T17:40:15.123Z,4.00
2022-09-17T17:43:42.554Z,3.70
2022-09-17T17:47:10.059Z,6.10
2022-09-17T17:50:37.356Z,7.70
2022-09-17T17:54:05.239Z,8.80
2022-09-17T17:57:32.562Z,6.80
2022-09-17T18:01:00.006Z,5.90
2022-09-17T18:04:28.147Z,5.30
2022-09-17T18:07:56.937Z,4.10
2022-09-17T18:11:24.805Z,3.80
2022-09-17T18:14:58.228Z,4.10
2022-09-17T18:18:26.376Z,4.30
2022-09-17T18:21:55.762Z,4.00
2022-09-17T18:25:23.130Z,4.20
2022-09-17T18:28:50.282Z,4.30
2022-09-17T18:32:18.817Z,4.20
2022-09-17T18:35:46.035Z,4.00
2022-09-17T18:39:53.256Z,4.50
2022-09-17T18:43:03.634Z,4.40
2022-09-17T18:46:32.147Z,5.10
2022-09-17T18:49:58.771Z,4.70
2022-09-17T18:53:25.880Z,4.20
2022-09-17T18:56:52.758Z,4.60
2022-09-17T19:00:20.795Z,3.90
2022-09-17T19:03:50.842Z,3.90
2022-09-17T19:07:20.806Z,4.50
2022-09-17T19:10:57.029Z,3.90
2022-09-17T19:14:25.900Z,3.60
2022-09-17T19:17:54.906Z,3.70
2022-09-17T19:21:23.596Z,4.00
2022-09-17T19:24:51.650Z,4.20
2022-09-17T19:28:20.772Z,4.90
2022-09-17T19:31:48.146Z,5.10
2022-09-17T19:35:23.422Z,5.00
2022-09-17T19:38:53.029Z,4.40
2022-09-17T19:42:33.250Z,3.80
2022-09-17T19:46:06.975Z,3.40
2022-09-17T19:49:36.622Z,4.10
2022-09-17T19:53:08.110Z,3.70
2022-09-17T19:56:43.590Z,3.80
2022-09-17T20:00:16.528Z,3.20
2022-09-17T20:03:45.269Z,3.30
2022-09-17T20:07:14.189Z,3.40
2022-09-17T20:10:42.588Z,4.00
2022-09-17T20:14:10.358Z,4.30
2022-09-17T20:17:39.519Z,3.60
2022-09-17T20:21:12.984Z,3.50
2022-09-17T20:24:47.653Z,3.50
2022-09-17T20:28:17.494Z,3.70
2022-09-17T20:31:47.480Z,3.50
2022-09-17T20:35:14.382Z,3.40
2022-09-17T20:39:11.546Z,3.80
2022-09-17T20:42:30.519Z,3.90
2022-09-17T20:45:59.439Z,3.40
2022-09-17T20:49:29.855Z,3.60
2022-09-17T20:53:01.113Z,3.50
2022-09-17T20:56:34.679Z,3.40
2022-09-17T21:00:18.353Z,3.70
2022-09-17T21:03:50.964Z,3.40
2022-09-17T21:07:19.778Z,3.00
2022-09-17T21:10:49.441Z,3.10
2022-09-17T21:14:19.679Z,2.60
2022-09-17T21:17:48.583Z,2.90
2022-09-17T21:21:20.038Z,2.70
2022-09-17T21:24:50.384Z,3.20
2022-09-17T21:28:26.495Z,2.50
2022-09-17T21:31:54.593Z,2.50
2022-09-17T21:35:30.364Z,2.90
2022-09-17T21:39:00.878Z,3.00
2022-09-17T21:42:28.172Z,2.90
2022-09-17T21:46:12.573Z,3.50
2022-09-17T21:53:04.658Z,2.80
2022-09-17T21:56:35.564Z,2.90
2022-09-17T22:00:03.768Z,3.00
2022-09-17T22:03:32.168Z,3.20
2022-09-17T22:07:01.155Z,2.50
2022-09-17T22:10:29.538Z,2.80
2022-09-17T22:13:59.100Z,2.40
2022-09-17T22:17:26.322Z,2.80
2022-09-17T22:20:55.897Z,2.50
2022-09-17T22:24:24.023Z,2.30
2022-09-17T22:28:16.776Z,2.30
2022-09-17T22:31:41.967Z,1.60
2022-09-17T22:35:11.443Z,2.60
2022-09-17T22:38:40.297Z,2.40
2022-09-17T22:42:08.578Z,2.40
2022-09-17T22:45:40.977Z,2.00
2022-09-17T22:49:08.981Z,2.10
2022-09-17T22:52:35.943Z,2.20
2022-09-17T22:56:03.688Z,2.10
2022-09-17T22:59:30.510Z,2.30
2022-09-17T23:02:58.725Z,1.70
2022-09-17T23:06:29.524Z,1.90
2022-09-17T23:09:57.046Z,1.70
2022-09-17T23:13:27.629Z,1.90
2022-09-17T23:16:54.725Z,2.20
2022-09-17T23:20:22.156Z,2.40
2022-09-17T23:23:53.766Z,3.70
2022-09-17T23:27:20.887Z,3.60
2022-09-17T23:30:48.364Z,3.70
2022-09-17T23:34:16.095Z,3.10
2022-09-17T23:37:45.050Z,3.20
2022-09-17T23:41:14.982Z,2.70
2022-09-17T23:44:42.068Z,2.80
2022-09-17T23:48:09.054Z,3.00
2022-09-17T23:51:38.138Z,2.60
2022-09-17T23:55:04.931Z,3.00
2022-09-17T23:58:34.613Z,2.80
